Humboldt, AZ

2:09 AM MST on September 18, 2014 (GMT -0700)
Humboldt | Change Station
CLOSE
Current Station
Personal Weather Station
Location: Humboldt, AZ
Elevation: 4482 ft
Nearby Weather Stations

Elev 4482 ft 34.50 °N, 112.23 °W | Updated 8 minutes ago

Clear
Clear
55.7 °F
Feels Like 55.7 °F
N
0.0
Wind Variable Wind from SE
Gusts 0.0 mph

Today
High -- | Low -- °F
--% Chance of Precip.
Yesterday
High -- | Low -- °F
Precip. -- in
6:14 AM 6:31 PM
Waning Crescent, 28% visible
Pressure 29.81 in
Visibility 10.0 miles
Clouds Clear
Dew Point 55 °F
Humidity 97%
Rainfall 0.00 in
Snow Depth Not available.
UV 0 out of 12
Pollen 4.50 out of 12
Air Quality Not available.
Flu Activity Not available.
METAR KPRC 180753Z AUTO 00000KT 10SM CLR 15/12 A3003 RMK AO2 SLP095 T01500122

More Conditions Fewer Conditions

Pressure 29.81 in
Visibility 10.0 miles
Clouds Clear
Dew Point 55 °F
Humidity 97%
Rainfall 0.00 in
Snow Depth Not available.
UV 0 out of 12
Pollen 4.50 out of 12
Air Quality Not available.
Flu Activity Not available.
METAR KPRC 180753Z AUTO 00000KT 10SM CLR 15/12 A3003 RMK AO2 SLP095 T01500122

More Conditions Fewer Conditions

10-Day Weather Forecast

Almanac

Astronomy

Sep. 18, 2014 Rise Set
Actual Time 6:14 AM MST 6:31 PM MST
Civil Twilight 5:48 AM MST 6:56 PM MST
Nautical Twilight 5:19 AM MST 7:25 PM MST
Astronomical Twilight 4:49 AM MST 7:55 PM MST
Moon 1:19 AM MST 3:15 PM MST
Length of Visible Light 13h 07m
Length of Day
12h 17m
Tomorrow will be 2m 9s shorter.
Waning Crescent, 28% of the Moon is Illuminated
Today
Waning Crescent
Sep 24
New
Oct 1
First Quarter
Oct 8
Full
Oct 15
Last Quarter

Today's Extremes

State Highs State Lows

Community

WunderPhotos

Upload Photos

1,754,310 photos uploaded!

Nearby

Snow Depth

Station Depth Elevation
Snowslide Canyon 0 in 9730 ft
Workman Creek 2 in 6900 ft
Wildcat 0 in 7850 ft
Promontory 0 in 7930 ft
Maverick Fork 0 in 9200 ft

Earthquake Activity

City Distance Mag. Time & Date
No recent earthquake activity has been reported nearby.
Minimum magnitude displayed is 2.5.

Coastal Water Temperatures

Place Temperature
No Stations Reporting

Nearby Weather Stations